Terminal Aerodrome Forecast
Issued by NWS

Home | Current Version | Previous Version | Text Only | Print | Product List | Glossary On
Versions: 1 2 3 4 5 6 7 8 9 10 11 12 13 14 15 16 17
000
FTUS45 KTFX 020500 RRA
TAFLWT
TAF
KLWT 020542Z 0206/0306 12008KT P6SM BKN120
     FM021000 19007KT P6SM SCT060 BKN100
     FM022000 34013G21KT 4SM -SN BLSN SCT010 BKN020
      TEMPO 0300/0304 1 1/2SM -SN BLSN BKN010=

USA.gov is the U.S. government's official web portal to all federal, state and local government web resources and services.